Terminal Aerodrome Forecast
Issued by NWS Charleston, WV

Current Version | Previous Version | Graphics & Text | Print | Product List | Glossary On
Versions: 1 2 3 4 5 6 7 8 9 10 11 12 13 14 15 16 17 18 19 20 21 22 23 24 25 26 27
000
FTUS41 KRLX 300000 AAA
TAFCRW
TAF AMD
KCRW 300018Z 3000/3024 29010G22KT P6SM OVC035
     FM300100 27008G15KT P6SM -SHRA OVC025
     FM300500 27008G14KT P6SM -SHRASN OVC015
     FM300700 28008G14KT 5SM -SHSN BR OVC010
     FM301400 30010G20KT 4SM -SHSN BR BKN025
     FM301700 31010G21KT P6SM -SHSN BKN025
     FM301900 31010G19KT P6SM -SHSN BKN035
     FM302200 31008KT P6SM -SHSN BKN035=

USA.gov is the U.S. government's official web portal to all federal, state and local government web resources and services.